createdAt,value
2019-06-26T00:02:23.363Z,68.69
2019-06-26T00:07:27.197Z,68.77
2019-06-26T00:12:30.952Z,68.76
2019-06-26T00:17:34.966Z,68.74
2019-06-26T00:22:38.724Z,68.90
2019-06-26T00:27:42.491Z,68.86
2019-06-26T00:32:46.508Z,68.72
2019-06-26T00:37:50.299Z,69.09
2019-06-26T00:42:54.104Z,68.94
2019-06-26T00:47:58.229Z,68.84
2019-06-26T00:53:02.070Z,68.86
2019-06-26T00:58:05.933Z,68.92
2019-06-26T01:03:09.776Z,68.92
2019-06-26T01:08:13.608Z,69.10
2019-06-26T01:13:17.365Z,69.61
2019-06-26T01:18:21.139Z,69.95
2019-06-26T01:23:24.909Z,69.93
2019-06-26T01:28:28.749Z,69.93
2019-06-26T01:33:32.746Z,70.08
2019-06-26T01:38:36.509Z,70.09
2019-06-26T01:43:40.269Z,70.11
2019-06-26T01:48:44.029Z,70.89
2019-06-26T01:53:47.904Z,70.70
2019-06-26T01:58:51.777Z,70.44
2019-06-26T02:03:55.533Z,70.84
2019-06-26T02:08:59.423Z,70.51
2019-06-26T02:14:03.189Z,70.34
2019-06-26T02:19:08.835Z,70.32
2019-06-26T02:24:12.642Z,70.65
2019-06-26T02:29:16.487Z,70.89
2019-06-26T02:34:20.356Z,71.05
2019-06-26T02:39:24.187Z,71.70
2019-06-26T02:44:28.184Z,71.33
2019-06-26T02:49:32.008Z,71.13
2019-06-26T02:54:35.768Z,71.73
2019-06-26T02:59:39.754Z,71.54
2019-06-26T03:04:43.808Z,71.30
2019-06-26T03:09:47.565Z,71.36
2019-06-26T03:15:04.653Z,71.40
2019-06-26T03:19:57.041Z,71.08
2019-06-26T03:25:00.958Z,70.86
2019-06-26T03:30:05.496Z,70.58
2019-06-26T03:35:09.745Z,70.29
2019-06-26T03:40:14.053Z,70.04
2019-06-26T03:45:25.501Z,69.80
2019-06-26T03:50:23.540Z,69.32
2019-06-26T03:55:27.301Z,68.75
2019-06-26T04:00:39.849Z,68.08
2019-06-26T04:05:43.636Z,67.01
2019-06-26T04:10:47.473Z,66.02
2019-06-26T04:15:51.245Z,64.25
2019-06-26T04:20:55.077Z,61.72
2019-06-26T04:25:59.054Z,59.33
2019-06-26T04:31:02.849Z,57.30
2019-06-26T04:36:06.838Z,54.36
2019-06-26T04:41:10.559Z,51.25
2019-06-26T04:46:14.551Z,49.80
2019-06-26T04:51:18.386Z,47.89
2019-06-26T04:56:22.365Z,45.78
2019-06-26T05:01:26.445Z,42.59
2019-06-26T05:06:30.289Z,41.42
2019-06-26T05:11:34.044Z,39.60
2019-06-26T05:16:37.874Z,38.49
2019-06-26T05:21:41.625Z,37.22
2019-06-26T05:26:45.383Z,35.13
2019-06-26T05:31:49.133Z,34.79
2019-06-26T05:36:52.983Z,34.42
2019-06-26T05:41:56.755Z,32.93
2019-06-26T05:47:00.731Z,32.65
2019-06-26T05:52:04.956Z,32.27
2019-06-26T05:57:08.706Z,32.36
2019-06-26T06:02:12.466Z,31.74
2019-06-26T06:07:16.299Z,31.26
2019-06-26T06:12:20.130Z,30.57
2019-06-26T06:17:23.995Z,31.72
2019-06-26T06:22:27.758Z,31.12
2019-06-26T06:27:31.595Z,31.68
2019-06-26T06:32:35.448Z,31.13
2019-06-26T06:37:39.364Z,30.47
2019-06-26T06:42:43.287Z,28.22
2019-06-26T06:47:47.048Z,27.60
2019-06-26T06:52:50.806Z,28.31
2019-06-26T06:57:54.583Z,26.91
2019-06-26T07:02:58.450Z,28.08
2019-06-26T07:08:02.225Z,28.47
2019-06-26T07:13:06.323Z,29.29
2019-06-26T07:18:10.211Z,29.11
2019-06-26T07:23:13.977Z,30.74
2019-06-26T07:28:17.797Z,31.06
2019-06-26T07:33:21.674Z,32.68
2019-06-26T07:38:25.445Z,33.75
2019-06-26T07:43:29.220Z,33.34
2019-06-26T07:48:33.260Z,31.97
2019-06-26T07:53:37.039Z,31.03
2019-06-26T07:58:41.154Z,31.57
2019-06-26T08:03:44.926Z,31.84
2019-06-26T08:08:48.799Z,31.62
2019-06-26T08:13:52.563Z,29.73
2019-06-26T08:18:56.335Z,30.31
2019-06-26T08:24:00.099Z,29.19
2019-06-26T08:29:04.302Z,29.81
2019-06-26T08:34:08.062Z,30.93
2019-06-26T08:39:11.835Z,32.34
2019-06-26T08:44:15.594Z,30.53
2019-06-26T08:49:25.623Z,30.17
2019-06-26T08:54:24.897Z,28.37
2019-06-26T08:59:28.699Z,30.23
2019-06-26T09:04:32.458Z,28.90
2019-06-26T09:09:36.274Z,27.99
2019-06-26T09:14:40.054Z,29.29
2019-06-26T09:19:43.787Z,29.75
2019-06-26T09:24:47.639Z,28.89
2019-06-26T09:29:51.638Z,29.06
2019-06-26T09:34:55.401Z,28.67
2019-06-26T09:39:59.158Z,28.84
2019-06-26T09:45:03.087Z,29.35
2019-06-26T09:50:07.325Z,28.89
2019-06-26T09:55:11.433Z,28.97
2019-06-26T10:00:17.042Z,29.53
2019-06-26T10:05:20.980Z,28.59
2019-06-26T10:10:24.899Z,30.66
2019-06-26T10:15:28.652Z,30.41
2019-06-26T10:20:32.455Z,29.68
2019-06-26T10:25:36.181Z,29.08
2019-06-26T10:30:40.079Z,28.61
2019-06-26T10:35:44.217Z,28.47
2019-06-26T10:40:47.936Z,27.98
2019-06-26T10:45:51.762Z,28.91
2019-06-26T10:50:58.933Z,27.17
2019-06-26T10:56:01.442Z,25.91
2019-06-26T11:01:05.448Z,27.12
2019-06-26T11:06:09.204Z,26.79
2019-06-26T11:11:13.031Z,28.35
2019-06-26T11:16:16.790Z,28.77
2019-06-26T11:21:20.607Z,27.55
2019-06-26T11:26:24.435Z,28.28
2019-06-26T11:31:28.458Z,28.54
2019-06-26T11:36:32.470Z,27.85
2019-06-26T11:41:36.218Z,27.91
2019-06-26T11:46:39.977Z,29.83
2019-06-26T11:51:43.752Z,28.25
2019-06-26T11:56:47.550Z,27.72
2019-06-26T12:01:51.384Z,28.06
2019-06-26T12:06:55.293Z,27.41
2019-06-26T12:11:59.123Z,27.94
2019-06-26T12:17:02.878Z,27.57
2019-06-26T12:22:06.971Z,28.00
2019-06-26T12:27:11.103Z,27.93
2019-06-26T12:32:14.948Z,26.52
2019-06-26T12:37:18.965Z,27.16
2019-06-26T12:42:22.724Z,27.62
2019-06-26T12:47:26.490Z,26.91
2019-06-26T12:52:30.588Z,25.66
2019-06-26T12:57:34.798Z,26.52
2019-06-26T13:02:38.772Z,25.71
2019-06-26T13:07:42.613Z,28.10
2019-06-26T13:12:46.372Z,28.55
2019-06-26T13:17:50.162Z,28.95
2019-06-26T13:22:53.902Z,28.17
2019-06-26T13:27:58.245Z,29.47
2019-06-26T13:33:02.024Z,30.39
2019-06-26T13:38:05.976Z,29.60
2019-06-26T13:43:09.735Z,29.52
2019-06-26T13:48:13.637Z,30.84
2019-06-26T13:53:17.396Z,30.41
2019-06-26T13:58:21.177Z,30.90
2019-06-26T14:03:24.927Z,30.77
2019-06-26T14:08:32.663Z,30.82
2019-06-26T14:13:34.496Z,29.91
2019-06-26T14:18:38.562Z,29.44
2019-06-26T14:23:42.324Z,31.04
2019-06-26T14:28:46.099Z,30.43
2019-06-26T14:33:49.865Z,30.27
2019-06-26T14:38:53.615Z,30.01
2019-06-26T14:43:57.755Z,29.99
2019-06-26T14:49:01.484Z,30.39
2019-06-26T14:54:05.263Z,30.20
2019-06-26T14:59:09.178Z,30.70
2019-06-26T15:04:12.936Z,31.10
2019-06-26T15:09:16.944Z,30.72
2019-06-26T15:14:20.798Z,30.48
2019-06-26T15:19:24.624Z,31.55
2019-06-26T15:24:28.625Z,31.51
2019-06-26T15:29:32.421Z,31.11
2019-06-26T15:34:36.213Z,31.36
2019-06-26T15:39:40.192Z,31.41
2019-06-26T15:44:43.963Z,31.54
2019-06-26T15:49:48.522Z,31.46
2019-06-26T15:54:52.284Z,31.31
2019-06-26T15:59:56.052Z,31.26
2019-06-26T16:04:59.846Z,30.92
2019-06-26T16:10:03.835Z,31.13
2019-06-26T16:15:07.864Z,30.93
2019-06-26T16:20:12.108Z,31.21
2019-06-26T16:25:16.429Z,30.98
2019-06-26T16:30:20.375Z,31.08
2019-06-26T16:35:24.286Z,31.25
2019-06-26T16:40:28.074Z,31.49
2019-06-26T16:45:31.917Z,31.30
2019-06-26T16:50:35.676Z,31.59
2019-06-26T16:55:39.513Z,31.70
2019-06-26T17:00:43.378Z,32.06
2019-06-26T17:05:47.348Z,32.50
2019-06-26T17:10:51.207Z,32.34
2019-06-26T17:15:54.974Z,32.38
2019-06-26T17:20:58.889Z,32.88
2019-06-26T17:26:02.919Z,33.13
2019-06-26T17:31:06.769Z,33.61
2019-06-26T17:36:10.518Z,33.92
2019-06-26T17:41:14.276Z,34.13
2019-06-26T17:46:18.046Z,34.66
2019-06-26T17:51:21.815Z,34.82
2019-06-26T17:56:25.587Z,34.63
2019-06-26T18:01:29.440Z,34.86
2019-06-26T18:06:33.202Z,35.36
2019-06-26T18:11:37.121Z,35.78
2019-06-26T18:16:41.181Z,36.67
2019-06-26T18:21:44.941Z,37.15
2019-06-26T18:26:49.076Z,37.66
2019-06-26T18:31:52.908Z,38.46
2019-06-26T18:36:56.680Z,39.06
2019-06-26T18:42:00.527Z,39.89
2019-06-26T18:47:04.450Z,40.28
2019-06-26T18:52:08.445Z,40.58
2019-06-26T18:57:12.310Z,40.78
2019-06-26T19:02:16.071Z,41.45
2019-06-26T19:07:19.837Z,41.95
2019-06-26T19:12:23.608Z,42.43
2019-06-26T19:17:27.712Z,43.05
2019-06-26T19:22:31.904Z,44.12
2019-06-26T19:27:35.864Z,45.23
2019-06-26T19:32:40.114Z,46.20
2019-06-26T19:37:43.881Z,47.03
2019-06-26T19:42:47.716Z,48.07
2019-06-26T19:47:51.779Z,49.25
2019-06-26T19:52:56.865Z,49.74
2019-06-26T19:58:07.960Z,50.75
2019-06-26T20:03:11.237Z,51.22
2019-06-26T20:08:16.112Z,51.54
2019-06-26T20:13:19.919Z,51.99
2019-06-26T20:18:23.677Z,52.46
2019-06-26T20:23:27.676Z,52.73
2019-06-26T20:28:31.471Z,53.02
2019-06-26T20:33:35.450Z,52.98
2019-06-26T20:38:39.452Z,52.98
2019-06-26T20:43:43.289Z,53.06
2019-06-26T20:48:47.096Z,53.13
2019-06-26T20:53:50.886Z,53.06
2019-06-26T20:58:54.662Z,53.23
2019-06-26T21:03:58.424Z,53.26
2019-06-26T21:09:02.185Z,53.47
2019-06-26T21:14:06.029Z,53.93
2019-06-26T21:19:10.031Z,54.47
2019-06-26T21:24:13.783Z,55.08
2019-06-26T21:29:17.812Z,55.61
2019-06-26T21:34:21.579Z,55.49
2019-06-26T21:39:25.373Z,55.67
2019-06-26T21:44:29.102Z,55.64
2019-06-26T21:49:32.870Z,55.79
2019-06-26T21:54:36.770Z,55.85
2019-06-26T21:59:40.625Z,56.10
2019-06-26T22:04:44.482Z,56.20
2019-06-26T22:09:48.266Z,56.28
2019-06-26T22:14:52.026Z,56.97
2019-06-26T22:19:56.061Z,56.98
2019-06-26T22:24:59.822Z,57.37
2019-06-26T22:30:03.856Z,58.61
2019-06-26T22:35:09.683Z,58.92
2019-06-26T22:40:13.697Z,59.74
2019-06-26T22:45:17.813Z,60.07
2019-06-26T22:50:21.720Z,60.29
2019-06-26T22:55:25.485Z,60.44
2019-06-26T23:00:29.271Z,60.73
2019-06-26T23:05:33.174Z,60.94
2019-06-26T23:10:37.078Z,61.27
2019-06-26T23:15:40.945Z,61.48
2019-06-26T23:20:44.712Z,61.54
2019-06-26T23:25:48.543Z,61.68
2019-06-26T23:30:52.301Z,62.04
2019-06-26T23:35:56.315Z,62.27
2019-06-26T23:41:00.095Z,62.78
2019-06-26T23:46:03.949Z,62.96
2019-06-26T23:51:07.943Z,63.15
2019-06-26T23:56:11.774Z,63.03
